sensor_id;sensor_type;location;lat;lon;timestamp;P1;durP1;ratioP1;P2;durP2;ratioP2
82396;SDS011;72034;51.426;7.534;2023-08-30T04:01:19;13.48;;;11.70;;
82396;SDS011;72034;51.426;7.534;2023-08-30T04:03:45;12.90;;;11.50;;
82396;SDS011;72034;51.426;7.534;2023-08-30T04:06:12;14.45;;;11.90;;
82396;SDS011;72034;51.426;7.534;2023-08-30T04:08:38;12.55;;;11.25;;
82396;SDS011;72034;51.426;7.534;2023-08-30T04:11:05;12.00;;;10.75;;
82396;SDS011;72034;51.426;7.534;2023-08-30T04:13:33;12.20;;;10.98;;
82396;SDS011;72034;51.426;7.534;2023-08-30T04:16:01;13.52;;;11.68;;
82396;SDS011;72034;51.426;7.534;2023-08-30T04:18:26;11.43;;;10.27;;
82396;SDS011;72034;51.426;7.534;2023-08-30T04:20:52;12.10;;;10.88;;
82396;SDS011;72034;51.426;7.534;2023-08-30T04:23:17;11.90;;;10.40;;
82396;SDS011;72034;51.426;7.534;2023-08-30T04:25:43;11.68;;;10.57;;
82396;SDS011;72034;51.426;7.534;2023-08-30T04:28:09;10.63;;;9.57;;
82396;SDS011;72034;51.426;7.534;2023-08-30T04:30:35;13.38;;;11.57;;
82396;SDS011;72034;51.426;7.534;2023-08-30T04:33:02;11.10;;;10.00;;
82396;SDS011;72034;51.426;7.534;2023-08-30T04:35:28;12.27;;;9.25;;
82396;SDS011;72034;51.426;7.534;2023-08-30T04:37:54;12.50;;;10.13;;
82396;SDS011;72034;51.426;7.534;2023-08-30T04:40:20;11.65;;;9.63;;
82396;SDS011;72034;51.426;7.534;2023-08-30T04:42:45;13.38;;;11.52;;
82396;SDS011;72034;51.426;7.534;2023-08-30T04:45:11;14.23;;;11.38;;
82396;SDS011;72034;51.426;7.534;2023-08-30T04:47:36;17.52;;;12.07;;
82396;SDS011;72034;51.426;7.534;2023-08-30T04:50:01;14.95;;;12.75;;
82396;SDS011;72034;51.426;7.534;2023-08-30T04:52:27;17.63;;;15.23;;
82396;SDS011;72034;51.426;7.534;2023-08-30T04:54:52;21.60;;;17.55;;
82396;SDS011;72034;51.426;7.534;2023-08-30T04:57:18;23.58;;;18.75;;
82396;SDS011;72034;51.426;7.534;2023-08-30T04:59:43;23.48;;;18.38;;
82396;SDS011;72034;51.426;7.534;2023-08-30T05:02:09;18.73;;;16.25;;
82396;SDS011;72034;51.426;7.534;2023-08-30T05:04:35;17.45;;;15.55;;
82396;SDS011;72034;51.426;7.534;2023-08-30T05:07:00;17.67;;;15.10;;
82396;SDS011;72034;51.426;7.534;2023-08-30T05:09:26;18.00;;;16.08;;
82396;SDS011;72034;51.426;7.534;2023-08-30T05:11:51;16.75;;;15.13;;
82396;SDS011;72034;51.426;7.534;2023-08-30T05:14:17;19.08;;;16.40;;
82396;SDS011;72034;51.426;7.534;2023-08-30T05:16:42;16.58;;;14.88;;
82396;SDS011;72034;51.426;7.534;2023-08-30T05:19:08;17.95;;;14.13;;
82396;SDS011;72034;51.426;7.534;2023-08-30T05:21:33;16.83;;;14.15;;
82396;SDS011;72034;51.426;7.534;2023-08-30T05:23:58;16.27;;;14.77;;
82396;SDS011;72034;51.426;7.534;2023-08-30T05:26:24;17.67;;;14.60;;
82396;SDS011;72034;51.426;7.534;2023-08-30T05:28:49;18.45;;;15.55;;
82396;SDS011;72034;51.426;7.534;2023-08-30T05:31:14;16.73;;;14.93;;
82396;SDS011;72034;51.426;7.534;2023-08-30T05:33:39;15.00;;;13.43;;
82396;SDS011;72034;51.426;7.534;2023-08-30T05:36:05;16.95;;;14.10;;
82396;SDS011;72034;51.426;7.534;2023-08-30T05:38:30;14.10;;;12.45;;
82396;SDS011;72034;51.426;7.534;2023-08-30T05:40:55;13.98;;;12.10;;
82396;SDS011;72034;51.426;7.534;2023-08-30T05:43:21;12.75;;;11.55;;
82396;SDS011;72034;51.426;7.534;2023-08-30T05:45:46;13.63;;;11.73;;
82396;SDS011;72034;51.426;7.534;2023-08-30T05:48:12;13.25;;;11.63;;
82396;SDS011;72034;51.426;7.534;2023-08-30T05:50:37;14.55;;;11.60;;
82396;SDS011;72034;51.426;7.534;2023-08-30T05:53:03;11.85;;;10.70;;
82396;SDS011;72034;51.426;7.534;2023-08-30T05:55:28;14.85;;;11.10;;
82396;SDS011;72034;51.426;7.534;2023-08-30T05:57:54;12.30;;;10.88;;
82396;SDS011;72034;51.426;7.534;2023-08-30T06:00:19;15.40;;;11.43;;
82396;SDS011;72034;51.426;7.534;2023-08-30T06:02:45;13.00;;;10.98;;
82396;SDS011;72034;51.426;7.534;2023-08-30T06:05:10;13.57;;;12.15;;
82396;SDS011;72034;51.426;7.534;2023-08-30T06:07:36;16.60;;;11.70;;
82396;SDS011;72034;51.426;7.534;2023-08-30T06:10:01;15.63;;;12.77;;
82396;SDS011;72034;51.426;7.534;2023-08-30T06:12:26;15.50;;;12.80;;
82396;SDS011;72034;51.426;7.534;2023-08-30T06:14:52;14.75;;;13.02;;
82396;SDS011;72034;51.426;7.534;2023-08-30T06:17:18;14.10;;;12.68;;
82396;SDS011;72034;51.426;7.534;2023-08-30T06:19:44;15.63;;;12.85;;
82396;SDS011;72034;51.426;7.534;2023-08-30T06:22:10;14.18;;;12.43;;
82396;SDS011;72034;51.426;7.534;2023-08-30T06:24:35;16.90;;;14.13;;
82396;SDS011;72034;51.426;7.534;2023-08-30T06:27:00;16.48;;;13.73;;
82396;SDS011;72034;51.426;7.534;2023-08-30T06:29:26;16.75;;;14.35;;
82396;SDS011;72034;51.426;7.534;2023-08-30T06:31:51;16.75;;;13.75;;
82396;SDS011;72034;51.426;7.534;2023-08-30T06:34:16;18.70;;;14.00;;
82396;SDS011;72034;51.426;7.534;2023-08-30T06:36:41;16.30;;;14.73;;
82396;SDS011;72034;51.426;7.534;2023-08-30T06:39:07;21.55;;;15.48;;
82396;SDS011;72034;51.426;7.534;2023-08-30T06:41:32;15.77;;;14.20;;
82396;SDS011;72034;51.426;7.534;2023-08-30T06:43:57;18.05;;;15.38;;
82396;SDS011;72034;51.426;7.534;2023-08-30T06:46:23;16.55;;;14.85;;
82396;SDS011;72034;51.426;7.534;2023-08-30T06:48:48;19.38;;;17.35;;
82396;SDS011;72034;51.426;7.534;2023-08-30T06:51:13;22.48;;;18.98;;
82396;SDS011;72034;51.426;7.534;2023-08-30T06:53:39;21.85;;;19.58;;
82396;SDS011;72034;51.426;7.534;2023-08-30T06:56:04;31.17;;;24.92;;
82396;SDS011;72034;51.426;7.534;2023-08-30T06:58:30;31.85;;;27.13;;
82396;SDS011;72034;51.426;7.534;2023-08-30T07:00:56;33.72;;;30.05;;
82396;SDS011;72034;51.426;7.534;2023-08-30T07:03:22;32.85;;;28.90;;
82396;SDS011;72034;51.426;7.534;2023-08-30T07:05:47;31.63;;;28.50;;
82396;SDS011;72034;51.426;7.534;2023-08-30T07:08:13;33.28;;;29.50;;
82396;SDS011;72034;51.426;7.534;2023-08-30T07:10:39;34.58;;;30.67;;
82396;SDS011;72034;51.426;7.534;2023-08-30T07:13:04;33.72;;;30.17;;
82396;SDS011;72034;51.426;7.534;2023-08-30T07:15:35;32.35;;;28.10;;
82396;SDS011;72034;51.426;7.534;2023-08-30T07:18:00;32.35;;;28.75;;
82396;SDS011;72034;51.426;7.534;2023-08-30T07:20:25;32.95;;;29.42;;
82396;SDS011;72034;51.426;7.534;2023-08-30T07:22:51;33.05;;;29.65;;
82396;SDS011;72034;51.426;7.534;2023-08-30T07:25:16;31.48;;;28.23;;
82396;SDS011;72034;51.426;7.534;2023-08-30T07:27:41;31.05;;;27.85;;
82396;SDS011;72034;51.426;7.534;2023-08-30T07:30:07;31.17;;;27.98;;
82396;SDS011;72034;51.426;7.534;2023-08-30T07:32:32;30.80;;;27.48;;
82396;SDS011;72034;51.426;7.534;2023-08-30T07:34:58;32.72;;;28.02;;
82396;SDS011;72034;51.426;7.534;2023-08-30T07:37:23;30.77;;;27.35;;
82396;SDS011;72034;51.426;7.534;2023-08-30T07:39:48;30.48;;;26.15;;
82396;SDS011;72034;51.426;7.534;2023-08-30T07:42:14;32.55;;;28.48;;
82396;SDS011;72034;51.426;7.534;2023-08-30T07:44:40;33.03;;;29.25;;
82396;SDS011;72034;51.426;7.534;2023-08-30T07:47:05;32.78;;;29.30;;
82396;SDS011;72034;51.426;7.534;2023-08-30T07:49:30;33.22;;;29.58;;
82396;SDS011;72034;51.426;7.534;2023-08-30T07:51:55;32.15;;;26.67;;
82396;SDS011;72034;51.426;7.534;2023-08-30T07:54:21;31.77;;;27.70;;
82396;SDS011;72034;51.426;7.534;2023-08-30T07:56:46;33.25;;;27.50;;
82396;SDS011;72034;51.426;7.534;2023-08-30T07:59:12;30.73;;;25.98;;
82396;SDS011;72034;51.426;7.534;2023-08-30T08:01:37;28.88;;;25.42;;
82396;SDS011;72034;51.426;7.534;2023-08-30T08:04:03;27.20;;;22.83;;
82396;SDS011;72034;51.426;7.534;2023-08-30T08:06:28;25.48;;;22.60;;
82396;SDS011;72034;51.426;7.534;2023-08-30T08:08:53;24.80;;;22.20;;
82396;SDS011;72034;51.426;7.534;2023-08-30T08:11:19;22.70;;;19.98;;
82396;SDS011;72034;51.426;7.534;2023-08-30T08:13:44;22.35;;;19.92;;
82396;SDS011;72034;51.426;7.534;2023-08-30T08:16:09;21.92;;;18.70;;
82396;SDS011;72034;51.426;7.534;2023-08-30T08:18:34;21.70;;;17.85;;
82396;SDS011;72034;51.426;7.534;2023-08-30T08:21:00;19.10;;;16.85;;
82396;SDS011;72034;51.426;7.534;2023-08-30T08:23:25;21.58;;;17.05;;
82396;SDS011;72034;51.426;7.534;2023-08-30T08:25:56;17.38;;;15.50;;
82396;SDS011;72034;51.426;7.534;2023-08-30T08:28:22;17.75;;;14.90;;
82396;SDS011;72034;51.426;7.534;2023-08-30T08:30:47;16.85;;;14.25;;
82396;SDS011;72034;51.426;7.534;2023-08-30T08:33:16;17.58;;;13.43;;
82396;SDS011;72034;51.426;7.534;2023-08-30T08:35:42;15.35;;;13.75;;
82396;SDS011;72034;51.426;7.534;2023-08-30T08:38:07;14.63;;;12.18;;
82396;SDS011;72034;51.426;7.534;2023-08-30T08:40:35;12.57;;;11.27;;
82396;SDS011;72034;51.426;7.534;2023-08-30T08:43:02;14.02;;;11.55;;
82396;SDS011;72034;51.426;7.534;2023-08-30T08:45:27;12.98;;;10.35;;
82396;SDS011;72034;51.426;7.534;2023-08-30T08:47:53;14.15;;;10.25;;
82396;SDS011;72034;51.426;7.534;2023-08-30T08:50:19;10.18;;;9.15;;
82396;SDS011;72034;51.426;7.534;2023-08-30T08:52:44;11.45;;;7.35;;
82396;SDS011;72034;51.426;7.534;2023-08-30T08:55:11;6.45;;;5.30;;
82396;SDS011;72034;51.426;7.534;2023-08-30T08:57:36;8.68;;;5.55;;
82396;SDS011;72034;51.426;7.534;2023-08-30T09:00:03;7.32;;;5.18;;
82396;SDS011;72034;51.426;7.534;2023-08-30T09:02:28;7.78;;;4.85;;
82396;SDS011;72034;51.426;7.534;2023-08-30T09:04:54;5.78;;;4.00;;
82396;SDS011;72034;51.426;7.534;2023-08-30T09:07:19;6.13;;;4.68;;
82396;SDS011;72034;51.426;7.534;2023-08-30T09:09:45;6.18;;;4.35;;
82396;SDS011;72034;51.426;7.534;2023-08-30T09:12:11;4.97;;;4.07;;
82396;SDS011;72034;51.426;7.534;2023-08-30T09:14:37;5.97;;;4.95;;
82396;SDS011;72034;51.426;7.534;2023-08-30T09:17:02;6.78;;;4.20;;
82396;SDS011;72034;51.426;7.534;2023-08-30T09:19:28;7.35;;;4.30;;
82396;SDS011;72034;51.426;7.534;2023-08-30T09:21:54;6.32;;;4.97;;
82396;SDS011;72034;51.426;7.534;2023-08-30T09:24:20;5.25;;;4.10;;
82396;SDS011;72034;51.426;7.534;2023-08-30T09:26:49;8.45;;;3.88;;
82396;SDS011;72034;51.426;7.534;2023-08-30T09:29:16;6.55;;;4.43;;
82396;SDS011;72034;51.426;7.534;2023-08-30T09:31:42;5.43;;;4.15;;
82396;SDS011;72034;51.426;7.534;2023-08-30T09:34:08;5.60;;;3.90;;
82396;SDS011;72034;51.426;7.534;2023-08-30T09:36:37;5.15;;;3.65;;
82396;SDS011;72034;51.426;7.534;2023-08-30T09:39:12;6.28;;;4.00;;
82396;SDS011;72034;51.426;7.534;2023-08-30T09:41:42;5.47;;;3.83;;
82396;SDS011;72034;51.426;7.534;2023-08-30T09:44:09;7.20;;;3.70;;
82396;SDS011;72034;51.426;7.534;2023-08-30T09:46:41;5.28;;;3.42;;
82396;SDS011;72034;51.426;7.534;2023-08-30T09:49:07;4.57;;;3.30;;
82396;SDS011;72034;51.426;7.534;2023-08-30T09:51:34;6.20;;;3.80;;
82396;SDS011;72034;51.426;7.534;2023-08-30T09:54:01;7.10;;;4.40;;
82396;SDS011;72034;51.426;7.534;2023-08-30T09:56:29;6.05;;;4.15;;
82396;SDS011;72034;51.426;7.534;2023-08-30T09:58:56;9.98;;;4.22;;
82396;SDS011;72034;51.426;7.534;2023-08-30T10:01:22;5.32;;;3.85;;
82396;SDS011;72034;51.426;7.534;2023-08-30T10:03:48;8.25;;;3.70;;
82396;SDS011;72034;51.426;7.534;2023-08-30T10:06:13;5.80;;;3.88;;
82396;SDS011;72034;51.426;7.534;2023-08-30T10:08:40;4.45;;;3.67;;
82396;SDS011;72034;51.426;7.534;2023-08-30T10:11:06;8.05;;;4.05;;
82396;SDS011;72034;51.426;7.534;2023-08-30T10:13:32;4.93;;;3.40;;
82396;SDS011;72034;51.426;7.534;2023-08-30T10:16:00;6.80;;;3.90;;
82396;SDS011;72034;51.426;7.534;2023-08-30T10:18:29;4.50;;;3.80;;
82396;SDS011;72034;51.426;7.534;2023-08-30T10:20:56;3.88;;;3.53;;
82396;SDS011;72034;51.426;7.534;2023-08-30T10:23:23;5.90;;;3.30;;
82396;SDS011;72034;51.426;7.534;2023-08-30T10:25:49;6.70;;;4.45;;
82396;SDS011;72034;51.426;7.534;2023-08-30T10:28:15;5.78;;;3.70;;
82396;SDS011;72034;51.426;7.534;2023-08-30T10:30:41;4.93;;;3.40;;
82396;SDS011;72034;51.426;7.534;2023-08-30T10:33:13;5.00;;;3.83;;
82396;SDS011;72034;51.426;7.534;2023-08-30T10:35:46;5.72;;;3.75;;
82396;SDS011;72034;51.426;7.534;2023-08-30T10:38:13;4.35;;;3.70;;
82396;SDS011;72034;51.426;7.534;2023-08-30T10:40:51;6.95;;;4.13;;
82396;SDS011;72034;51.426;7.534;2023-08-30T10:43:16;5.45;;;3.75;;
82396;SDS011;72034;51.426;7.534;2023-08-30T10:45:41;7.28;;;3.92;;
82396;SDS011;72034;51.426;7.534;2023-08-30T10:48:06;4.30;;;3.63;;
82396;SDS011;72034;51.426;7.534;2023-08-30T10:50:32;6.90;;;4.13;;
82396;SDS011;72034;51.426;7.534;2023-08-30T10:52:58;5.85;;;4.07;;
82396;SDS011;72034;51.426;7.534;2023-08-30T10:55:24;5.10;;;4.32;;
82396;SDS011;72034;51.426;7.534;2023-08-30T10:58:02;6.80;;;4.50;;
82396;SDS011;72034;51.426;7.534;2023-08-30T11:00:29;6.53;;;4.60;;
82396;SDS011;72034;51.426;7.534;2023-08-30T11:02:55;5.70;;;4.72;;
82396;SDS011;72034;51.426;7.534;2023-08-30T11:05:22;6.90;;;5.30;;
82396;SDS011;72034;51.426;7.534;2023-08-30T11:07:48;7.75;;;5.15;;
82396;SDS011;72034;51.426;7.534;2023-08-30T11:10:15;6.13;;;4.90;;
82396;SDS011;72034;51.426;7.534;2023-08-30T11:12:41;5.00;;;4.40;;
82396;SDS011;72034;51.426;7.534;2023-08-30T11:15:07;8.90;;;4.90;;
82396;SDS011;72034;51.426;7.534;2023-08-30T11:17:33;7.63;;;6.38;;
82396;SDS011;72034;51.426;7.534;2023-08-30T11:20:08;7.65;;;6.95;;
82396;SDS011;72034;51.426;7.534;2023-08-30T11:22:36;8.82;;;8.10;;
82396;SDS011;72034;51.426;7.534;2023-08-30T11:25:02;8.48;;;7.45;;
82396;SDS011;72034;51.426;7.534;2023-08-30T11:27:28;8.93;;;7.82;;
82396;SDS011;72034;51.426;7.534;2023-08-30T11:29:58;8.35;;;7.47;;
82396;SDS011;72034;51.426;7.534;2023-08-30T11:32:24;10.45;;;6.93;;
82396;SDS011;72034;51.426;7.534;2023-08-30T11:34:56;7.00;;;5.60;;
82396;SDS011;72034;51.426;7.534;2023-08-30T11:37:26;6.95;;;4.65;;
82396;SDS011;72034;51.426;7.534;2023-08-30T11:39:53;7.38;;;5.90;;
82396;SDS011;72034;51.426;7.534;2023-08-30T11:42:18;9.32;;;5.22;;
82396;SDS011;72034;51.426;7.534;2023-08-30T11:44:44;7.07;;;5.63;;
82396;SDS011;72034;51.426;7.534;2023-08-30T11:47:10;6.97;;;5.30;;
82396;SDS011;72034;51.426;7.534;2023-08-30T11:49:35;7.35;;;5.30;;
82396;SDS011;72034;51.426;7.534;2023-08-30T11:52:01;6.82;;;5.57;;
82396;SDS011;72034;51.426;7.534;2023-08-30T11:54:27;6.80;;;5.50;;
82396;SDS011;72034;51.426;7.534;2023-08-30T11:56:53;8.52;;;5.95;;
82396;SDS011;72034;51.426;7.534;2023-08-30T11:59:19;6.03;;;5.43;;
82396;SDS011;72034;51.426;7.534;2023-08-30T12:01:45;7.93;;;5.45;;
82396;SDS011;72034;51.426;7.534;2023-08-30T12:04:11;5.93;;;5.43;;
82396;SDS011;72034;51.426;7.534;2023-08-30T12:06:36;6.65;;;5.57;;
82396;SDS011;72034;51.426;7.534;2023-08-30T12:09:02;9.13;;;6.25;;
82396;SDS011;72034;51.426;7.534;2023-08-30T12:11:31;8.43;;;7.25;;
82396;SDS011;72034;51.426;7.534;2023-08-30T12:14:01;9.60;;;7.35;;
82396;SDS011;72034;51.426;7.534;2023-08-30T12:16:27;8.65;;;7.93;;
82396;SDS011;72034;51.426;7.534;2023-08-30T12:18:52;7.72;;;7.03;;
82396;SDS011;72034;51.426;7.534;2023-08-30T12:21:17;9.13;;;7.75;;
82396;SDS011;72034;51.426;7.534;2023-08-30T12:23:43;9.05;;;8.15;;
82396;SDS011;72034;51.426;7.534;2023-08-30T12:26:09;9.77;;;8.77;;
82396;SDS011;72034;51.426;7.534;2023-08-30T12:28:36;9.80;;;8.45;;
82396;SDS011;72034;51.426;7.534;2023-08-30T12:31:05;11.88;;;10.20;;
82396;SDS011;72034;51.426;7.534;2023-08-30T12:33:32;11.20;;;9.95;;
82396;SDS011;72034;51.426;7.534;2023-08-30T12:35:58;11.40;;;10.35;;
82396;SDS011;72034;51.426;7.534;2023-08-30T12:38:23;13.13;;;11.05;;
82396;SDS011;72034;51.426;7.534;2023-08-30T12:40:50;11.30;;;10.00;;
82396;SDS011;72034;51.426;7.534;2023-08-30T12:43:16;11.13;;;10.02;;
82396;SDS011;72034;51.426;7.534;2023-08-30T12:45:43;11.70;;;10.50;;
82396;SDS011;72034;51.426;7.534;2023-08-30T12:48:10;10.82;;;9.73;;
82396;SDS011;72034;51.426;7.534;2023-08-30T12:50:36;17.40;;;10.85;;
82396;SDS011;72034;51.426;7.534;2023-08-30T12:53:02;12.20;;;9.20;;
82396;SDS011;72034;51.426;7.534;2023-08-30T12:55:28;9.70;;;8.48;;
82396;SDS011;72034;51.426;7.534;2023-08-30T12:57:53;9.13;;;8.18;;
82396;SDS011;72034;51.426;7.534;2023-08-30T13:00:19;8.85;;;7.15;;
82396;SDS011;72034;51.426;7.534;2023-08-30T13:02:44;7.70;;;5.82;;
82396;SDS011;72034;51.426;7.534;2023-08-30T13:05:09;5.00;;;4.50;;
82396;SDS011;72034;51.426;7.534;2023-08-30T13:07:35;5.15;;;4.00;;
82396;SDS011;72034;51.426;7.534;2023-08-30T13:10:01;5.03;;;4.28;;
82396;SDS011;72034;51.426;7.534;2023-08-30T13:12:26;4.45;;;4.03;;
82396;SDS011;72034;51.426;7.534;2023-08-30T13:14:51;4.50;;;4.10;;
82396;SDS011;72034;51.426;7.534;2023-08-30T13:17:17;5.47;;;3.85;;
82396;SDS011;72034;51.426;7.534;2023-08-30T13:19:42;3.72;;;3.40;;
82396;SDS011;72034;51.426;7.534;2023-08-30T13:22:08;3.20;;;2.90;;
82396;SDS011;72034;51.426;7.534;2023-08-30T13:24:36;4.57;;;3.17;;
82396;SDS011;72034;51.426;7.534;2023-08-30T13:27:01;4.03;;;2.88;;
82396;SDS011;72034;51.426;7.534;2023-08-30T13:29:27;3.95;;;2.90;;
82396;SDS011;72034;51.426;7.534;2023-08-30T13:31:53;3.28;;;2.60;;
82396;SDS011;72034;51.426;7.534;2023-08-30T13:34:18;2.40;;;2.17;;
82396;SDS011;72034;51.426;7.534;2023-08-30T13:36:43;2.80;;;2.60;;
82396;SDS011;72034;51.426;7.534;2023-08-30T13:39:09;3.80;;;3.10;;
82396;SDS011;72034;51.426;7.534;2023-08-30T13:41:34;4.85;;;3.75;;
82396;SDS011;72034;51.426;7.534;2023-08-30T13:44:00;3.95;;;2.38;;
82396;SDS011;72034;51.426;7.534;2023-08-30T13:46:26;3.17;;;2.85;;
82396;SDS011;72034;51.426;7.534;2023-08-30T13:48:51;2.45;;;2.25;;
82396;SDS011;72034;51.426;7.534;2023-08-30T13:51:23;2.58;;;2.15;;
82396;SDS011;72034;51.426;7.534;2023-08-30T13:53:52;5.10;;;2.45;;
82396;SDS011;72034;51.426;7.534;2023-08-30T13:56:18;2.92;;;2.58;;
82396;SDS011;72034;51.426;7.534;2023-08-30T13:58:44;2.75;;;2.20;;
82396;SDS011;72034;51.426;7.534;2023-08-30T14:01:10;3.15;;;2.33;;
82396;SDS011;72034;51.426;7.534;2023-08-30T14:03:35;2.67;;;2.47;;
82396;SDS011;72034;51.426;7.534;2023-08-30T14:06:00;2.97;;;2.60;;
82396;SDS011;72034;51.426;7.534;2023-08-30T14:08:26;4.63;;;2.88;;
82396;SDS011;72034;51.426;7.534;2023-08-30T14:10:51;4.22;;;2.67;;
82396;SDS011;72034;51.426;7.534;2023-08-30T14:13:16;4.00;;;2.85;;
82396;SDS011;72034;51.426;7.534;2023-08-30T14:15:41;3.30;;;2.60;;
82396;SDS011;72034;51.426;7.534;2023-08-30T14:18:07;2.83;;;2.40;;
82396;SDS011;72034;51.426;7.534;2023-08-30T14:20:32;3.58;;;2.78;;
82396;SDS011;72034;51.426;7.534;2023-08-30T14:22:58;3.97;;;2.72;;
82396;SDS011;72034;51.426;7.534;2023-08-30T14:25:23;3.22;;;2.42;;
82396;SDS011;72034;51.426;7.534;2023-08-30T14:27:48;3.42;;;2.92;;
82396;SDS011;72034;51.426;7.534;2023-08-30T14:30:14;3.33;;;3.03;;
82396;SDS011;72034;51.426;7.534;2023-08-30T14:32:40;3.75;;;2.90;;
82396;SDS011;72034;51.426;7.534;2023-08-30T14:35:05;4.22;;;3.40;;
82396;SDS011;72034;51.426;7.534;2023-08-30T14:37:31;3.47;;;3.17;;
82396;SDS011;72034;51.426;7.534;2023-08-30T14:39:56;4.38;;;3.00;;
82396;SDS011;72034;51.426;7.534;2023-08-30T14:42:21;4.78;;;3.10;;
82396;SDS011;72034;51.426;7.534;2023-08-30T14:44:50;4.35;;;3.00;;
82396;SDS011;72034;51.426;7.534;2023-08-30T14:47:18;3.60;;;2.80;;
82396;SDS011;72034;51.426;7.534;2023-08-30T14:49:45;3.40;;;2.90;;
82396;SDS011;72034;51.426;7.534;2023-08-30T14:52:11;3.33;;;3.03;;
82396;SDS011;72034;51.426;7.534;2023-08-30T14:54:37;4.40;;;3.97;;
82396;SDS011;72034;51.426;7.534;2023-08-30T14:57:02;4.25;;;3.85;;
82396;SDS011;72034;51.426;7.534;2023-08-30T14:59:27;3.67;;;3.38;;
82396;SDS011;72034;51.426;7.534;2023-08-30T15:01:53;5.75;;;4.53;;
82396;SDS011;72034;51.426;7.534;2023-08-30T15:04:18;4.22;;;3.85;;
82396;SDS011;72034;51.426;7.534;2023-08-30T15:06:43;5.05;;;4.18;;
82396;SDS011;72034;51.426;7.534;2023-08-30T15:09:09;5.43;;;4.93;;
82396;SDS011;72034;51.426;7.534;2023-08-30T15:11:34;5.28;;;4.80;;
82396;SDS011;72034;51.426;7.534;2023-08-30T15:14:00;5.32;;;4.82;;
82396;SDS011;72034;51.426;7.534;2023-08-30T15:16:25;5.28;;;4.78;;
82396;SDS011;72034;51.426;7.534;2023-08-30T15:18:51;5.18;;;4.68;;
82396;SDS011;72034;51.426;7.534;2023-08-30T15:21:16;5.65;;;5.10;;
82396;SDS011;72034;51.426;7.534;2023-08-30T15:23:41;4.97;;;4.57;;
82396;SDS011;72034;51.426;7.534;2023-08-30T15:26:07;5.32;;;4.70;;
82396;SDS011;72034;51.426;7.534;2023-08-30T15:28:32;5.82;;;5.00;;
82396;SDS011;72034;51.426;7.534;2023-08-30T15:30:57;5.93;;;5.18;;
82396;SDS011;72034;51.426;7.534;2023-08-30T15:33:22;6.72;;;5.78;;
82396;SDS011;72034;51.426;7.534;2023-08-30T15:35:49;6.55;;;5.93;;
82396;SDS011;72034;51.426;7.534;2023-08-30T15:38:15;7.35;;;5.47;;
82396;SDS011;72034;51.426;7.534;2023-08-30T15:40:40;5.85;;;5.25;;
82396;SDS011;72034;51.426;7.534;2023-08-30T15:43:06;5.82;;;5.22;;
82396;SDS011;72034;51.426;7.534;2023-08-30T15:45:32;5.72;;;5.20;;
82396;SDS011;72034;51.426;7.534;2023-08-30T15:47:57;6.35;;;5.75;;
82396;SDS011;72034;51.426;7.534;2023-08-30T15:50:23;6.22;;;5.50;;
82396;SDS011;72034;51.426;7.534;2023-08-30T15:52:48;6.57;;;5.82;;
82396;SDS011;72034;51.426;7.534;2023-08-30T15:55:14;6.50;;;5.80;;
82396;SDS011;72034;51.426;7.534;2023-08-30T15:57:39;7.28;;;6.30;;
82396;SDS011;72034;51.426;7.534;2023-08-30T16:00:05;6.03;;;5.30;;
82396;SDS011;72034;51.426;7.534;2023-08-30T16:02:31;6.00;;;5.40;;
82396;SDS011;72034;51.426;7.534;2023-08-30T16:04:57;6.70;;;5.97;;
82396;SDS011;72034;51.426;7.534;2023-08-30T16:07:22;6.30;;;4.95;;
82396;SDS011;72034;51.426;7.534;2023-08-30T16:09:48;5.43;;;4.35;;
82396;SDS011;72034;51.426;7.534;2023-08-30T16:12:13;6.05;;;5.22;;
82396;SDS011;72034;51.426;7.534;2023-08-30T16:14:39;5.72;;;5.18;;
82396;SDS011;72034;51.426;7.534;2023-08-30T16:17:04;8.30;;;4.93;;
82396;SDS011;72034;51.426;7.534;2023-08-30T16:19:29;5.75;;;5.18;;
82396;SDS011;72034;51.426;7.534;2023-08-30T16:21:55;5.97;;;5.05;;
82396;SDS011;72034;51.426;7.534;2023-08-30T16:24:20;5.53;;;4.97;;
82396;SDS011;72034;51.426;7.534;2023-08-30T16:26:48;8.13;;;5.22;;
82396;SDS011;72034;51.426;7.534;2023-08-30T16:29:18;6.47;;;4.78;;
82396;SDS011;72034;51.426;7.534;2023-08-30T16:31:43;5.43;;;4.30;;
82396;SDS011;72034;51.426;7.534;2023-08-30T16:34:09;4.93;;;3.95;;
82396;SDS011;72034;51.426;7.534;2023-08-30T16:36:34;5.60;;;4.60;;
82396;SDS011;72034;51.426;7.534;2023-08-30T16:38:59;8.07;;;4.97;;
82396;SDS011;72034;51.426;7.534;2023-08-30T16:41:26;6.22;;;4.82;;
82396;SDS011;72034;51.426;7.534;2023-08-30T16:43:51;5.88;;;5.38;;
82396;SDS011;72034;51.426;7.534;2023-08-30T16:46:16;6.05;;;4.60;;
82396;SDS011;72034;51.426;7.534;2023-08-30T16:48:42;5.22;;;4.20;;
82396;SDS011;72034;51.426;7.534;2023-08-30T16:51:07;6.15;;;4.82;;
82396;SDS011;72034;51.426;7.534;2023-08-30T16:53:33;4.93;;;4.53;;
82396;SDS011;72034;51.426;7.534;2023-08-30T16:55:59;5.75;;;5.10;;
82396;SDS011;72034;51.426;7.534;2023-08-30T16:58:26;5.97;;;5.38;;
82396;SDS011;72034;51.426;7.534;2023-08-30T17:00:51;8.02;;;5.55;;
82396;SDS011;72034;51.426;7.534;2023-08-30T17:03:16;6.63;;;5.82;;
82396;SDS011;72034;51.426;7.534;2023-08-30T17:05:42;8.20;;;5.88;;
82396;SDS011;72034;51.426;7.534;2023-08-30T17:08:07;6.32;;;5.70;;
82396;SDS011;72034;51.426;7.534;2023-08-30T17:10:32;6.38;;;5.65;;
82396;SDS011;72034;51.426;7.534;2023-08-30T17:12:57;6.90;;;6.25;;
82396;SDS011;72034;51.426;7.534;2023-08-30T17:15:23;7.00;;;6.30;;
82396;SDS011;72034;51.426;7.534;2023-08-30T17:17:49;6.32;;;5.72;;
82396;SDS011;72034;51.426;7.534;2023-08-30T17:20:14;6.43;;;5.82;;
82396;SDS011;72034;51.426;7.534;2023-08-30T17:22:39;6.82;;;6.20;;
82396;SDS011;72034;51.426;7.534;2023-08-30T17:25:05;7.28;;;5.88;;
82396;SDS011;72034;51.426;7.534;2023-08-30T17:27:30;6.32;;;5.40;;
82396;SDS011;72034;51.426;7.534;2023-08-30T17:29:55;8.02;;;5.93;;
82396;SDS011;72034;51.426;7.534;2023-08-30T17:32:21;6.60;;;6.00;;
82396;SDS011;72034;51.426;7.534;2023-08-30T17:34:46;6.40;;;5.80;;
82396;SDS011;72034;51.426;7.534;2023-08-30T17:37:13;7.07;;;6.00;;
82396;SDS011;72034;51.426;7.534;2023-08-30T17:39:38;6.60;;;6.00;;
82396;SDS011;72034;51.426;7.534;2023-08-30T17:42:04;7.20;;;6.50;;
82396;SDS011;72034;51.426;7.534;2023-08-30T17:44:30;7.13;;;6.40;;
82396;SDS011;72034;51.426;7.534;2023-08-30T17:46:56;7.18;;;6.47;;
82396;SDS011;72034;51.426;7.534;2023-08-30T17:49:21;7.82;;;7.13;;
82396;SDS011;72034;51.426;7.534;2023-08-30T17:51:46;7.25;;;6.65;;
82396;SDS011;72034;51.426;7.534;2023-08-30T17:54:12;8.63;;;7.78;;
82396;SDS011;72034;51.426;7.534;2023-08-30T17:56:37;9.05;;;7.80;;
82396;SDS011;72034;51.426;7.534;2023-08-30T17:59:03;8.48;;;7.60;;
82396;SDS011;72034;51.426;7.534;2023-08-30T18:01:28;9.77;;;7.63;;
82396;SDS011;72034;51.426;7.534;2023-08-30T18:03:54;9.52;;;7.53;;
82396;SDS011;72034;51.426;7.534;2023-08-30T18:06:20;8.32;;;7.53;;
82396;SDS011;72034;51.426;7.534;2023-08-30T18:08:45;8.80;;;8.00;;
82396;SDS011;72034;51.426;7.534;2023-08-30T18:11:14;9.40;;;8.15;;
82396;SDS011;72034;51.426;7.534;2023-08-30T18:13:44;9.65;;;8.60;;
82396;SDS011;72034;51.426;7.534;2023-08-30T18:16:10;11.15;;;8.95;;
82396;SDS011;72034;51.426;7.534;2023-08-30T18:18:37;9.75;;;8.75;;
82396;SDS011;72034;51.426;7.534;2023-08-30T18:21:06;11.85;;;9.02;;
82396;SDS011;72034;51.426;7.534;2023-08-30T18:23:31;10.40;;;8.75;;
82396;SDS011;72034;51.426;7.534;2023-08-30T18:25:57;11.48;;;9.20;;
82396;SDS011;72034;51.426;7.534;2023-08-30T18:28:23;10.05;;;8.93;;
82396;SDS011;72034;51.426;7.534;2023-08-30T18:30:49;11.18;;;9.88;;